Time;durP1;ratioP1;P1;durP2;ratioP2;P2;SDS_P1;SDS_P2;PMS_P1;PMS_P2;Temp;Humidity;BMP_temperature;BMP_pressure;BME280_temperature;BME280_humidity;BME280_pressure;Samples;Min_cycle;Max_cycle;Signal;HPM_P1;HPM_P2
2024/01/16 00:02:33;;;;;;;5.03;2.25;;;3.20;95.30;;;;;;6213012;23;20353;-72
2024/01/16 00:05:19;;;;;;;5.22;2.92;;;3.30;95.40;;;;;;6190935;23;20008;-72
2024/01/16 00:08:05;;;;;;;5.35;2.83;;;3.30;95.40;;;;;;6210404;23;20095;-72
2024/01/16 00:10:51;;;;;;;6.00;2.00;;;3.40;95.50;;;;;;6211463;23;20013;-72
2024/01/16 00:13:37;;;;;;;3.85;1.85;;;3.40;95.60;;;;;;6210395;23;20020;-71
2024/01/16 00:16:23;;;;;;;3.92;1.77;;;3.30;95.60;;;;;;6210814;23;20091;-74
2024/01/16 00:19:10;;;;;;;4.20;1.60;;;3.30;95.70;;;;;;6213196;23;20009;-73
2024/01/16 00:21:56;;;;;;;3.55;1.90;;;3.30;95.90;;;;;;6212638;23;20092;-74
2024/01/16 00:24:42;;;;;;;3.47;1.80;;;3.20;96.00;;;;;;6211424;23;20008;-64
2024/01/16 00:27:28;;;;;;;3.75;2.17;;;3.30;96.10;;;;;;6211098;23;20097;-64
2024/01/16 00:30:14;;;;;;;3.50;1.95;;;3.30;96.20;;;;;;6213077;23;20035;-64
2024/01/16 00:33:00;;;;;;;3.22;1.70;;;3.30;96.30;;;;;;6210767;23;20083;-64
2024/01/16 00:35:46;;;;;;;6.88;2.05;;;3.30;96.60;;;;;;6212563;23;20027;-64
2024/01/16 00:38:35;;;;;;;3.08;2.05;;;3.20;96.40;;;;;;6209389;23;20009;-64
2024/01/16 00:41:21;;;;;;;4.85;2.00;;;3.10;96.50;;;;;;6214636;23;20009;-64
2024/01/16 00:44:07;;;;;;;3.17;2.22;;;3.10;96.60;;;;;;6228507;23;20008;-64
2024/01/16 00:46:53;;;;;;;4.35;2.38;;;3.00;96.60;;;;;;6210908;23;20016;-63
2024/01/16 00:49:39;;;;;;;3.78;2.22;;;2.80;96.60;;;;;;6219268;23;20079;-64
2024/01/16 00:52:26;;;;;;;3.35;2.08;;;2.70;96.70;;;;;;6219667;23;20005;-74
2024/01/16 00:55:12;;;;;;;3.15;1.77;;;2.50;97.00;;;;;;6222384;23;20024;-74
2024/01/16 00:57:58;;;;;;;3.58;2.15;;;2.40;97.10;;;;;;6212740;23;20096;-74
2024/01/16 01:00:44;;;;;;;2.90;2.15;;;2.30;97.20;;;;;;6211452;23;20015;-75
2024/01/16 01:03:29;;;;;;;3.72;2.35;;;2.20;97.30;;;;;;6213272;23;20016;-64
2024/01/16 01:06:15;;;;;;;3.55;1.88;;;2.10;97.40;;;;;;6211293;23;20427;-64
2024/01/16 01:09:02;;;;;;;4.50;2.08;;;1.90;97.60;;;;;;6210873;23;20113;-64
2024/01/16 01:11:48;;;;;;;4.22;1.70;;;1.70;97.60;;;;;;6210671;23;20004;-65
2024/01/16 01:14:34;;;;;;;4.57;1.80;;;1.60;97.80;;;;;;6211134;23;20016;-65
2024/01/16 01:17:20;;;;;;;2.25;1.38;;;1.40;97.80;;;;;;6210046;23;20044;-64
2024/01/16 01:20:12;;;;;;;4.00;1.65;;;1.40;98.00;;;;;;6213497;23;20373;-64
2024/01/16 01:22:58;;;;;;;3.92;1.42;;;1.40;98.20;;;;;;6210705;23;20015;-65
2024/01/16 01:25:44;;;;;;;1.60;0.93;;;1.30;98.20;;;;;;6209817;23;20023;-65
2024/01/16 01:28:30;;;;;;;2.78;1.50;;;1.20;98.30;;;;;;6211874;23;20024;-66
2024/01/16 01:31:16;;;;;;;1.60;1.13;;;1.10;98.40;;;;;;6209268;23;20008;-65
2024/01/16 01:34:04;;;;;;;2.95;1.58;;;1.10;98.50;;;;;;6210284;23;20017;-65
2024/01/16 01:36:50;;;;;;;2.13;1.10;;;1.10;98.60;;;;;;6212071;23;20001;-65
2024/01/16 01:39:36;;;;;;;4.78;1.63;;;1.00;98.60;;;;;;6210640;23;20009;-66
2024/01/16 01:42:22;;;;;;;2.63;1.20;;;1.00;98.70;;;;;;6210384;23;20551;-65
2024/01/16 01:45:11;;;;;;;3.10;1.33;;;1.00;98.80;;;;;;6210895;23;20327;-65
2024/01/16 01:47:57;;;;;;;6.53;1.20;;;1.00;99.00;;;;;;6188233;23;20043;-66
2024/01/16 01:50:43;;;;;;;2.15;1.20;;;1.00;98.80;;;;;;6209392;23;20008;-66
2024/01/16 01:53:31;;;;;;;1.77;1.30;;;1.00;98.80;;;;;;6210112;23;20012;-66
2024/01/16 01:56:21;;;;;;;2.80;1.50;;;1.00;98.90;;;;;;6210894;23;20067;-66
2024/01/16 01:59:08;;;;;;;3.05;1.70;;;1.00;98.90;;;;;;6189773;23;20009;-65
2024/01/16 02:01:54;;;;;;;2.85;1.48;;;1.10;99.00;;;;;;6189013;23;20013;-65
2024/01/16 02:04:42;;;;;;;4.28;1.52;;;1.10;99.00;;;;;;6211137;23;20005;-65
2024/01/16 02:07:28;;;;;;;4.05;2.05;;;1.10;99.00;;;;;;6209786;23;20090;-65
2024/01/16 02:10:14;;;;;;;3.88;1.88;;;1.10;99.10;;;;;;6210626;23;20012;-65
2024/01/16 02:13:00;;;;;;;5.13;2.25;;;1.10;99.10;;;;;;6210319;23;20016;-65
2024/01/16 02:15:47;;;;;;;3.75;1.65;;;1.10;99.10;;;;;;6209115;23;20056;-65
2024/01/16 02:18:33;;;;;;;4.32;1.80;;;1.10;99.20;;;;;;6210360;23;20737;-65
2024/01/16 02:21:24;;;;;;;5.47;1.88;;;1.10;99.20;;;;;;6210515;23;20017;-65
2024/01/16 02:24:11;;;;;;;4.00;1.58;;;1.20;99.30;;;;;;6209735;23;20508;-65
2024/01/16 02:26:57;;;;;;;2.15;1.30;;;1.20;99.30;;;;;;6209228;23;20087;-65
2024/01/16 02:29:44;;;;;;;2.78;1.20;;;1.20;99.30;;;;;;6208888;23;20058;-65
2024/01/16 02:32:30;;;;;;;2.03;1.13;;;1.20;99.30;;;;;;6208635;23;20064;-65
2024/01/16 02:35:18;;;;;;;3.10;1.58;;;1.20;99.30;;;;;;6208805;23;20028;-64
2024/01/16 02:38:04;;;;;;;1.67;1.20;;;1.20;99.40;;;;;;6210070;23;20464;-65
2024/01/16 02:40:50;;;;;;;3.33;1.40;;;1.30;99.40;;;;;;6209733;23;20099;-65
2024/01/16 02:43:36;;;;;;;3.22;1.88;;;1.30;99.50;;;;;;6211756;23;20040;-64
2024/01/16 02:46:22;;;;;;;3.58;1.50;;;1.30;99.50;;;;;;6211203;23;20022;-76
2024/01/16 02:49:08;;;;;;;1.63;1.30;;;1.40;99.50;;;;;;6208968;23;20020;-78
2024/01/16 02:51:54;;;;;;;1.85;1.40;;;1.40;99.50;;;;;;6211044;23;20015;-78
2024/01/16 02:54:40;;;;;;;1.85;1.20;;;1.40;99.40;;;;;;6210611;23;20070;-77
2024/01/16 02:57:26;;;;;;;3.33;1.50;;;1.40;99.40;;;;;;6209352;23;20096;-77
2024/01/16 03:00:13;;;;;;;3.08;2.20;;;1.40;99.40;;;;;;6209897;23;20051;-78
2024/01/16 03:03:00;;;;;;;3.97;2.00;;;1.30;99.40;;;;;;6210419;23;20366;-77
2024/01/16 03:05:47;;;;;;;2.50;1.60;;;1.40;99.50;;;;;;6209875;23;20028;-77
2024/01/16 03:08:33;;;;;;;6.15;2.05;;;1.40;99.60;;;;;;6210508;23;20056;-77
2024/01/16 03:11:19;;;;;;;3.55;2.47;;;1.40;99.60;;;;;;6209467;23;20036;-77
2024/01/16 03:14:05;;;;;;;5.68;1.60;;;1.50;99.70;;;;;;6210469;23;20009;-64
2024/01/16 03:16:51;;;;;;;5.45;2.00;;;1.50;99.60;;;;;;6209981;23;20009;-65
2024/01/16 03:19:37;;;;;;;3.55;2.00;;;1.50;99.70;;;;;;6211403;23;20024;-64
2024/01/16 03:22:24;;;;;;;5.78;2.10;;;1.50;99.70;;;;;;6211000;23;20056;-65
2024/01/16 03:25:13;;;;;;;5.72;2.05;;;1.50;99.70;;;;;;6212307;23;20425;-66
2024/01/16 03:27:59;;;;;;;4.47;1.83;;;1.50;99.70;;;;;;6210978;23;20035;-66
2024/01/16 03:30:45;;;;;;;2.55;1.55;;;1.60;99.80;;;;;;6179535;23;20084;-65
2024/01/16 03:33:31;;;;;;;3.58;1.70;;;1.60;99.90;;;;;;6178991;23;20013;-65
2024/01/16 03:36:16;;;;;;;2.13;1.67;;;1.70;99.90;;;;;;6179536;23;20016;-66
2024/01/16 03:39:03;;;;;;;3.47;2.00;;;1.80;99.90;;;;;;6179501;23;20009;-66
2024/01/16 03:41:49;;;;;;;5.30;2.15;;;1.90;99.90;;;;;;6180719;23;20013;-67
2024/01/16 03:44:41;;;;;;;2.72;1.58;;;1.90;99.90;;;;;;6178988;23;20037;-66
2024/01/16 03:47:27;;;;;;;1.98;1.60;;;2.00;99.90;;;;;;6179265;23;20017;-67
2024/01/16 03:50:13;;;;;;;3.20;2.13;;;2.00;99.90;;;;;;6179333;23;20464;-67
2024/01/16 03:52:58;;;;;;;3.63;1.75;;;2.10;99.90;;;;;;6179430;23;20013;-67
2024/01/16 03:55:44;;;;;;;2.42;1.85;;;2.10;99.90;;;;;;6178701;23;20017;-69
2024/01/16 03:58:30;;;;;;;4.40;2.30;;;2.20;99.90;;;;;;6179395;23;20012;-69
2024/01/16 04:01:16;;;;;;;3.33;1.73;;;2.20;99.90;;;;;;6178813;23;20378;-69
2024/01/16 04:04:02;;;;;;;2.90;1.60;;;2.30;99.90;;;;;;6177104;23;20583;-69
2024/01/16 04:06:48;;;;;;;2.40;1.60;;;2.20;99.90;;;;;;6179758;23;20087;-69
2024/01/16 04:09:34;;;;;;;5.93;1.80;;;2.30;99.90;;;;;;6179695;23;20068;-69
2024/01/16 04:12:21;;;;;;;2.45;1.63;;;2.30;99.90;;;;;;6184375;23;20028;-68
2024/01/16 04:15:07;;;;;;;5.25;1.63;;;2.30;99.80;;;;;;6190983;23;20024;-69
2024/01/16 04:17:53;;;;;;;2.20;2.00;;;2.20;99.90;;;;;;6190410;23;20015;-68
2024/01/16 04:20:39;;;;;;;5.95;2.78;;;2.20;99.80;;;;;;6204687;23;20064;-69
2024/01/16 04:23:25;;;;;;;4.05;2.25;;;2.20;99.90;;;;;;6193345;23;20009;-69
2024/01/16 04:26:11;;;;;;;3.33;2.03;;;2.30;99.90;;;;;;6189035;23;20013;-68
2024/01/16 04:28:57;;;;;;;3.67;2.42;;;2.30;99.80;;;;;;6186942;23;20346;-68
2024/01/16 04:31:43;;;;;;;4.03;1.98;;;2.30;99.80;;;;;;6182986;23;20632;-69
2024/01/16 04:34:29;;;;;;;3.60;2.25;;;2.30;99.80;;;;;;6180237;23;20009;-69
2024/01/16 04:37:15;;;;;;;4.28;2.60;;;2.30;99.70;;;;;;6183387;23;20274;-69
2024/01/16 04:40:01;;;;;;;3.30;2.30;;;2.40;99.70;;;;;;6181653;23;20607;-69
2024/01/16 04:42:47;;;;;;;2.45;1.73;;;2.40;99.70;;;;;;6181232;23;20024;-69
2024/01/16 04:45:33;;;;;;;4.38;2.47;;;2.40;99.60;;;;;;6180448;23;20096;-69
2024/01/16 04:48:19;;;;;;;3.50;2.38;;;2.40;99.60;;;;;;6180702;23;20075;-69
2024/01/16 04:51:05;;;;;;;5.03;3.00;;;2.40;99.60;;;;;;6180995;23;20009;-69
2024/01/16 04:53:52;;;;;;;4.35;2.75;;;2.30;99.60;;;;;;6182123;23;20009;-69
2024/01/16 04:56:38;;;;;;;3.22;2.38;;;2.20;99.60;;;;;;6181921;23;20005;-69
2024/01/16 04:59:24;;;;;;;6.65;2.88;;;2.30;99.70;;;;;;6182225;23;20044;-68
2024/01/16 05:02:10;;;;;;;4.78;3.10;;;2.30;99.70;;;;;;6179025;23;20009;-68
2024/01/16 05:04:57;;;;;;;4.80;2.90;;;2.30;99.70;;;;;;6158472;23;20020;-69
2024/01/16 05:07:43;;;;;;;4.68;3.28;;;2.30;99.70;;;;;;6181074;23;20032;-68
2024/01/16 05:10:29;;;;;;;6.43;3.28;;;2.30;99.80;;;;;;6180635;23;20036;-68
2024/01/16 05:13:14;;;;;;;6.38;2.72;;;2.30;99.80;;;;;;6181539;23;20013;-68
2024/01/16 05:16:01;;;;;;;4.82;2.90;;;2.40;99.80;;;;;;6181216;23;20063;-68
2024/01/16 05:18:46;;;;;;;7.10;2.50;;;2.40;99.80;;;;;;6159274;23;20020;-68
2024/01/16 05:21:32;;;;;;;8.60;3.35;;;2.40;99.70;;;;;;6181103;23;20044;-68
2024/01/16 05:24:18;;;;;;;4.35;3.00;;;2.40;99.70;;;;;;6180508;23;20016;-68
2024/01/16 05:27:04;;;;;;;6.90;3.22;;;2.40;99.60;;;;;;6182546;23;20009;-68
2024/01/16 05:29:50;;;;;;;6.47;3.13;;;2.40;99.60;;;;;;6182645;23;20034;-68
2024/01/16 05:32:36;;;;;;;6.45;3.83;;;2.40;99.70;;;;;;6212588;23;20110;-68
2024/01/16 05:35:22;;;;;;;5.15;3.22;;;2.30;99.50;;;;;;6210954;23;20090;-69
2024/01/16 05:38:08;;;;;;;5.93;3.78;;;2.20;99.60;;;;;;6212358;23;20016;-69
2024/01/16 05:40:54;;;;;;;7.07;3.83;;;2.20;99.70;;;;;;6211751;23;20135;-69
2024/01/16 05:43:40;;;;;;;4.22;2.90;;;2.30;99.80;;;;;;6203309;23;20099;-69
2024/01/16 05:46:26;;;;;;;5.50;3.22;;;2.30;99.80;;;;;;6200274;23;20059;-69
2024/01/16 05:49:11;;;;;;;4.30;2.40;;;2.30;99.80;;;;;;6212022;23;20052;-69
2024/01/16 05:51:57;;;;;;;5.20;2.58;;;2.30;99.80;;;;;;6210830;23;20008;-69
2024/01/16 05:54:43;;;;;;;5.78;3.28;;;2.30;99.80;;;;;;6211069;23;20019;-70
2024/01/16 05:57:33;;;;;;;6.88;3.35;;;2.30;99.70;;;;;;6212350;23;20053;-69
2024/01/16 06:00:22;;;;;;;4.07;2.72;;;2.20;99.60;;;;;;6210145;23;20473;-68
2024/01/16 06:03:08;;;;;;;8.45;3.67;;;2.10;99.60;;;;;;6213031;23;20464;-71
2024/01/16 06:05:54;;;;;;;5.35;3.42;;;2.10;99.60;;;;;;6201394;23;20051;-70
2024/01/16 06:08:40;;;;;;;7.07;3.88;;;2.20;99.60;;;;;;6211720;23;20027;-68
2024/01/16 06:11:33;;;;;;;4.43;3.53;;;2.10;99.60;;;;;;6212040;23;20027;-70
2024/01/16 06:14:21;;;;;;;5.72;3.47;;;2.10;99.60;;;;;;6211208;23;20019;-70
2024/01/16 06:17:07;;;;;;;4.55;3.47;;;2.10;99.60;;;;;;6197388;23;20020;-69
2024/01/16 06:19:53;;;;;;;5.68;3.50;;;2.10;99.60;;;;;;6210677;23;20017;-69
2024/01/16 06:22:39;;;;;;;6.32;3.65;;;2.10;99.60;;;;;;6203339;23;20020;-69
2024/01/16 06:25:25;;;;;;;5.88;4.00;;;2.10;99.50;;;;;;6192975;23;20429;-69
2024/01/16 14:45:50;;;;;;;4.68;2.80;;;4.80;98.30;;;;;;6240128;22;20024;-64
2024/01/16 14:48:43;;;;;;;8.65;3.15;;;4.80;98.30;;;;;;6241206;23;20043;-64
2024/01/16 14:51:29;;;;;;;7.97;3.20;;;4.80;98.40;;;;;;6240471;23;20012;-63
2024/01/16 14:54:15;;;;;;;8.27;3.08;;;4.80;98.40;;;;;;6239140;23;20016;-63
2024/01/16 14:57:01;;;;;;;7.47;3.05;;;4.80;98.40;;;;;;6239666;23;20012;-64
2024/01/16 14:59:47;;;;;;;10.80;3.00;;;4.80;98.40;;;;;;6241176;23;20004;-64
2024/01/16 15:02:33;;;;;;;5.15;3.25;;;4.80;98.40;;;;;;6238988;23;20012;-63
2024/01/16 15:05:20;;;;;;;9.02;3.47;;;4.80;98.40;;;;;;6238990;23;20371;-63
2024/01/16 15:08:06;;;;;;;7.38;3.47;;;4.80;98.40;;;;;;6240706;23;20020;-65
2024/01/16 15:10:52;;;;;;;12.95;3.60;;;4.80;98.40;;;;;;6239730;23;20024;-63
2024/01/16 15:13:38;;;;;;;8.52;3.58;;;4.70;98.40;;;;;;6239012;23;20040;-63
2024/01/16 15:16:24;;;;;;;5.70;3.28;;;4.70;98.40;;;;;;6240376;23;20012;-63
2024/01/16 15:19:10;;;;;;;7.30;3.42;;;4.70;98.40;;;;;;6240230;23;20326;-63
2024/01/16 15:21:57;;;;;;;9.50;4.05;;;4.60;98.40;;;;;;6240309;23;20326;-63
2024/01/16 15:24:43;;;;;;;7.07;3.60;;;4.60;98.40;;;;;;6239830;23;20020;-63
2024/01/16 15:27:29;;;;;;;7.65;4.18;;;4.50;98.50;;;;;;6241566;23;20015;-63
2024/01/16 15:30:15;;;;;;;12.20;3.92;;;4.50;98.50;;;;;;6238688;23;20024;-63
2024/01/16 15:33:04;;;;;;;5.70;3.28;;;4.50;98.50;;;;;;6241336;23;20384;-63
2024/01/16 15:35:49;;;;;;;10.38;4.13;;;4.40;98.60;;;;;;6241418;23;20008;-62
2024/01/16 15:38:35;;;;;;;9.05;4.00;;;4.40;98.60;;;;;;6239842;23;20015;-62
2024/01/16 15:41:21;;;;;;;7.35;3.95;;;4.40;98.70;;;;;;6239976;23;20453;-63
2024/01/16 15:44:07;;;;;;;7.25;3.95;;;4.40;98.70;;;;;;6237782;23;20016;-63
2024/01/16 15:47:00;;;;;;;9.30;4.45;;;4.30;98.80;;;;;;6239755;23;20083;-63
2024/01/16 15:49:47;;;;;;;8.85;4.63;;;4.40;98.90;;;;;;6217134;23;20016;-65
2024/01/16 15:52:34;;;;;;;10.07;5.18;;;4.40;98.90;;;;;;6238229;23;20036;-63
2024/01/16 15:55:20;;;;;;;10.30;5.00;;;4.40;98.90;;;;;;6241661;22;20012;-62
2024/01/16 15:58:06;;;;;;;10.07;5.38;;;4.40;99.00;;;;;;6239167;23;20150;-63
2024/01/16 16:00:52;;;;;;;11.00;5.10;;;4.30;99.00;;;;;;6219101;23;20008;-63
2024/01/16 16:03:37;;;;;;;10.07;4.63;;;4.40;99.20;;;;;;6220089;23;20034;-63
2024/01/16 16:06:24;;;;;;;11.05;4.82;;;4.40;99.20;;;;;;6240009;23;20070;-63
2024/01/16 16:09:11;;;;;;;7.95;5.22;;;4.40;99.30;;;;;;6242412;23;20518;-63
2024/01/16 16:11:57;;;;;;;9.55;5.50;;;4.30;99.30;;;;;;6243337;23;20012;-63
2024/01/16 16:14:43;;;;;;;13.80;5.75;;;4.30;99.40;;;;;;6240491;23;20019;-63
2024/01/16 16:17:28;;;;;;;14.00;5.47;;;4.30;99.40;;;;;;6242341;23;20036;-63
2024/01/16 16:20:14;;;;;;;10.93;6.35;;;4.30;99.50;;;;;;6240932;23;20016;-63
2024/01/16 16:23:00;;;;;;;11.00;5.97;;;4.30;99.50;;;;;;6241122;23;20062;-63
2024/01/16 16:25:47;;;;;;;9.88;5.82;;;4.30;99.60;;;;;;6241417;23;20019;-63
2024/01/16 16:28:32;;;;;;;10.05;5.28;;;4.30;99.60;;;;;;6241756;23;20016;-63
2024/01/16 16:31:19;;;;;;;10.35;5.93;;;4.30;99.60;;;;;;6240685;23;20015;-63
2024/01/16 16:34:07;;;;;;;10.88;5.78;;;4.30;99.60;;;;;;6241210;23;20440;-63
2024/01/16 16:36:53;;;;;;;9.48;5.82;;;4.30;99.70;;;;;;6243184;23;20023;-63
2024/01/16 16:39:39;;;;;;;11.07;5.97;;;4.30;99.70;;;;;;6241394;23;20008;-63
2024/01/16 16:42:27;;;;;;;13.15;7.00;;;4.40;99.70;;;;;;6220091;23;20035;-64
2024/01/16 16:45:13;;;;;;;16.90;6.85;;;4.40;99.70;;;;;;6240760;23;20439;-69
2024/01/16 16:47:59;;;;;;;14.52;6.55;;;4.40;99.80;;;;;;6241338;23;20004;-69
2024/01/16 16:50:44;;;;;;;10.52;6.30;;;4.40;99.80;;;;;;6241125;23;20095;-69
2024/01/16 16:53:30;;;;;;;14.43;7.32;;;4.40;99.80;;;;;;6220522;23;20009;-69
2024/01/16 16:56:18;;;;;;;10.98;5.57;;;4.40;99.80;;;;;;6221012;23;20011;-69
2024/01/16 16:59:04;;;;;;;16.42;7.75;;;4.50;99.80;;;;;;6241621;23;20019;-69
2024/01/16 17:01:51;;;;;;;10.95;6.88;;;4.50;99.80;;;;;;6241221;23;20008;-69
2024/01/16 17:04:37;;;;;;;17.17;8.25;;;4.50;99.80;;;;;;6240509;23;20384;-69
2024/01/16 17:07:23;;;;;;;17.42;8.52;;;4.50;99.80;;;;;;6241209;23;20012;-69
2024/01/16 17:10:09;;;;;;;14.18;7.57;;;4.50;99.80;;;;;;6241366;23;20040;-69
2024/01/16 17:12:56;;;;;;;15.18;7.65;;;4.60;99.90;;;;;;6240232;23;20091;-71
2024/01/16 17:15:42;;;;;;;13.40;7.85;;;4.60;99.80;;;;;;6242060;23;20491;-69
2024/01/16 17:18:32;;;;;;;15.15;7.38;;;4.60;99.80;;;;;;6240301;23;20012;-68
2024/01/16 17:21:18;;;;;;;10.38;6.32;;;4.60;99.80;;;;;;6240533;23;20421;-69
2024/01/16 17:24:04;;;;;;;15.38;7.28;;;4.60;99.70;;;;;;6239331;23;20037;-69
2024/01/16 17:26:50;;;;;;;19.13;7.43;;;4.60;99.70;;;;;;6252609;23;20023;-68
2024/01/16 17:29:38;;;;;;;10.02;6.90;;;4.70;99.70;;;;;;6262419;23;20016;-69
2024/01/16 17:32:24;;;;;;;10.63;6.45;;;4.60;99.60;;;;;;6229593;23;20000;-69
2024/01/16 17:35:13;;;;;;;10.23;6.28;;;4.60;99.50;;;;;;6247419;23;20039;-69
2024/01/16 17:37:59;;;;;;;10.93;6.18;;;4.50;99.50;;;;;;6241337;23;20074;-68
2024/01/16 17:40:45;;;;;;;11.65;6.65;;;4.50;99.40;;;;;;6242378;23;20019;-69
2024/01/16 17:43:31;;;;;;;11.20;6.18;;;4.50;99.30;;;;;;6219045;23;20437;-69
2024/01/16 17:46:18;;;;;;;11.32;6.15;;;4.50;99.30;;;;;;6241313;23;20099;-70
2024/01/16 17:49:04;;;;;;;11.07;6.03;;;4.40;99.30;;;;;;6239388;23;20016;-69
2024/01/16 17:51:50;;;;;;;10.60;5.70;;;4.50;99.30;;;;;;6240510;23;20344;-70
2024/01/16 17:54:40;;;;;;;11.27;5.80;;;4.50;99.20;;;;;;6217726;23;20352;-70
2024/01/16 17:57:27;;;;;;;10.18;5.72;;;4.40;99.20;;;;;;6240411;23;20039;-70
2024/01/16 18:00:16;;;;;;;8.75;6.07;;;4.50;99.20;;;;;;6239063;23;20012;-70
2024/01/16 18:03:03;;;;;;;8.38;5.60;;;4.50;99.20;;;;;;6241957;23;20099;-70
2024/01/16 18:05:49;;;;;;;12.60;6.50;;;4.40;99.10;;;;;;6242349;23;20087;-68
2024/01/16 18:08:37;;;;;;;11.15;6.78;;;4.50;99.10;;;;;;6238125;23;20016;-68
2024/01/16 18:11:23;;;;;;;13.98;6.53;;;4.50;99.10;;;;;;6239955;23;20073;-67
2024/01/16 18:14:11;;;;;;;15.95;7.78;;;4.50;99.20;;;;;;6239799;23;20322;-66
2024/01/16 18:16:57;;;;;;;13.38;7.45;;;4.50;99.00;;;;;;6240464;23;20311;-65
2024/01/16 18:19:44;;;;;;;12.55;7.53;;;4.50;99.00;;;;;;6240179;23;20016;-65
2024/01/16 18:22:29;;;;;;;16.88;8.13;;;4.40;98.90;;;;;;6242589;23;20445;-66
2024/01/16 18:25:15;;;;;;;17.05;7.57;;;4.50;99.00;;;;;;6240198;23;20445;-65
2024/01/16 18:28:02;;;;;;;16.77;8.13;;;4.50;99.00;;;;;;6240176;23;20092;-65
2024/01/16 18:30:48;;;;;;;11.80;7.55;;;4.50;98.90;;;;;;6241264;23;20050;-64
2024/01/16 18:33:34;;;;;;;15.82;7.90;;;4.50;98.90;;;;;;6238392;23;20031;-65
2024/01/16 18:36:20;;;;;;;15.05;7.80;;;4.60;98.90;;;;;;6241989;23;20016;-64
2024/01/16 18:39:12;;;;;;;10.32;6.75;;;4.50;98.90;;;;;;6238870;23;20016;-64
2024/01/16 18:41:58;;;;;;;12.55;7.20;;;4.50;98.90;;;;;;6239194;23;20034;-64
2024/01/16 18:44:44;;;;;;;11.48;7.15;;;4.50;98.90;;;;;;6239751;23;20027;-65
2024/01/16 18:47:31;;;;;;;12.20;6.43;;;4.50;98.90;;;;;;6240336;23;20008;-64
2024/01/16 18:50:17;;;;;;;12.82;6.88;;;4.50;98.80;;;;;;6240511;23;20064;-64
2024/01/16 18:53:03;;;;;;;11.70;7.68;;;4.40;98.80;;;;;;6239586;23;20072;-65
2024/01/16 18:55:51;;;;;;;14.38;7.95;;;4.40;98.80;;;;;;6239913;23;20090;-65
2024/01/16 18:58:37;;;;;;;17.98;8.65;;;4.40;98.80;;;;;;6240128;23;20012;-64
2024/01/16 19:01:28;;;;;;;17.20;9.18;;;4.30;98.80;;;;;;6239655;23;20146;-64
2024/01/16 19:04:17;;;;;;;19.75;11.10;;;4.30;99.00;;;;;;6239210;23;20016;-64
2024/01/16 19:07:11;;;;;;;16.52;8.98;;;4.30;98.90;;;;;;6218651;23;20035;-64
2024/01/16 19:09:57;;;;;;;15.77;8.63;;;4.30;98.80;;;;;;6240340;23;20016;-64
2024/01/16 19:12:47;;;;;;;19.88;8.55;;;4.30;98.80;;;;;;6239359;23;20054;-64
2024/01/16 19:15:33;;;;;;;15.23;7.90;;;4.30;98.80;;;;;;6239533;23;20012;-65
2024/01/16 19:18:19;;;;;;;15.27;7.90;;;4.30;98.80;;;;;;6239963;23;20016;-64
2024/01/16 19:21:07;;;;;;;14.70;7.93;;;4.20;98.80;;;;;;6240897;23;20004;-64
2024/01/16 19:23:53;;;;;;;11.30;7.35;;;4.30;98.90;;;;;;6242070;23;20004;-64
2024/01/16 19:26:39;;;;;;;10.27;6.57;;;4.30;98.90;;;;;;6241953;23;20008;-64
2024/01/16 19:29:25;;;;;;;12.52;7.13;;;4.30;98.90;;;;;;6241793;23;20027;-64
2024/01/16 19:32:11;;;;;;;12.13;6.80;;;4.30;98.90;;;;;;6240746;23;20067;-63
2024/01/16 19:34:57;;;;;;;12.23;7.30;;;4.30;98.80;;;;;;6241807;23;20391;-65
2024/01/16 19:37:44;;;;;;;12.32;7.95;;;4.30;98.80;;;;;;6242038;23;20004;-65
2024/01/16 19:40:30;;;;;;;11.80;7.60;;;4.30;98.80;;;;;;6238728;23;20579;-65
2024/01/16 19:43:16;;;;;;;9.93;7.25;;;4.30;98.80;;;;;;6218960;23;20433;-65
2024/01/16 19:46:02;;;;;;;13.13;7.78;;;4.30;98.70;;;;;;6243670;23;20353;-65
2024/01/16 19:48:48;;;;;;;10.93;6.90;;;4.20;98.70;;;;;;6241023;23;20023;-65
2024/01/16 19:51:40;;;;;;;11.95;7.43;;;4.20;98.70;;;;;;6242835;23;20011;-66
2024/01/16 19:54:27;;;;;;;11.38;6.80;;;4.20;98.70;;;;;;6241879;23;20008;-66
2024/01/16 19:57:12;;;;;;;12.07;8.30;;;4.20;98.70;;;;;;6241795;23;20488;-66
2024/01/16 20:00:01;;;;;;;13.95;7.43;;;4.30;98.80;;;;;;6243726;23;20036;-65
2024/01/16 20:02:47;;;;;;;16.33;8.40;;;4.30;98.70;;;;;;6241514;23;20070;-66
2024/01/16 20:05:42;;;;;;;14.27;7.32;;;4.30;98.70;;;;;;6242079;23;20094;-66
2024/01/16 20:08:28;;;;;;;12.73;7.43;;;4.30;98.70;;;;;;6243411;23;20020;-66
2024/01/16 20:11:14;;;;;;;12.82;8.50;;;4.30;98.70;;;;;;6243064;23;20012;-65
2024/01/16 20:14:00;;;;;;;14.80;8.27;;;4.30;98.70;;;;;;6241798;23;20349;-65
2024/01/16 20:16:47;;;;;;;15.55;8.27;;;4.30;98.60;;;;;;6242333;23;20067;-65
2024/01/16 20:19:33;;;;;;;12.85;8.13;;;4.30;98.70;;;;;;6241024;23;20079;-66
2024/01/16 20:22:19;;;;;;;8.80;7.18;;;4.30;98.60;;;;;;6241016;23;20020;-67
2024/01/16 20:25:06;;;;;;;15.55;7.60;;;4.30;98.80;;;;;;6242687;23;20062;-65
2024/01/16 20:27:52;;;;;;;11.55;7.07;;;4.20;98.60;;;;;;6241170;23;20150;-67
2024/01/16 20:30:40;;;;;;;11.25;6.93;;;4.30;98.60;;;;;;6242103;23;20014;-64
2024/01/16 20:33:26;;;;;;;13.27;7.35;;;4.30;98.50;;;;;;6241270;23;20009;-64
2024/01/16 20:36:13;;;;;;;10.20;6.25;;;4.20;98.50;;;;;;6241558;23;20031;-64
2024/01/16 20:38:59;;;;;;;9.73;6.75;;;4.20;98.40;;;;;;6241058;23;20140;-64
2024/01/16 20:41:45;;;;;;;11.30;6.00;;;4.20;98.40;;;;;;6240157;23;20507;-65
2024/01/16 20:44:32;;;;;;;13.02;5.85;;;4.20;98.60;;;;;;6239528;23;20378;-65
2024/01/16 20:47:18;;;;;;;8.13;5.30;;;4.20;98.40;;;;;;6241452;23;20388;-65
2024/01/16 20:50:05;;;;;;;9.60;5.80;;;4.20;98.40;;;;;;6240610;23;20024;-65
2024/01/16 20:52:51;;;;;;;8.73;5.90;;;4.20;98.40;;;;;;6254179;23;20040;-64
2024/01/16 20:55:38;;;;;;;9.95;6.25;;;4.20;98.40;;;;;;6264874;23;19996;-65
2024/01/16 20:58:24;;;;;;;9.52;5.28;;;4.20;98.40;;;;;;6245719;23;20011;-64
2024/01/16 21:01:10;;;;;;;9.52;5.28;;;4.10;98.40;;;;;;6240308;23;20376;-64
2024/01/16 21:03:56;;;;;;;9.63;6.07;;;4.10;98.40;;;;;;6243154;23;20527;-64
2024/01/16 21:06:42;;;;;;;10.20;5.45;;;4.10;98.30;;;;;;6243132;23;20323;-64
2024/01/16 21:09:28;;;;;;;10.50;6.63;;;4.10;98.30;;;;;;6240803;23;20023;-65
2024/01/16 21:12:21;;;;;;;10.55;6.30;;;4.00;98.30;;;;;;6240201;23;20015;-64
2024/01/16 21:15:07;;;;;;;12.43;5.65;;;4.10;98.30;;;;;;6220385;23;20353;-66
2024/01/16 21:17:53;;;;;;;12.48;6.90;;;4.10;98.20;;;;;;6240710;23;20114;-66
2024/01/16 21:20:39;;;;;;;8.35;5.50;;;4.00;98.20;;;;;;6220368;23;20004;-65
2024/01/16 21:23:26;;;;;;;9.65;5.88;;;3.90;98.20;;;;;;6241333;23;20008;-65
2024/01/16 21:26:12;;;;;;;9.82;6.10;;;3.80;98.20;;;;;;6241055;23;20032;-65
2024/01/16 21:28:58;;;;;;;9.13;5.65;;;3.80;98.20;;;;;;6241675;23;20016;-65
2024/01/16 21:31:44;;;;;;;14.05;7.70;;;3.80;98.40;;;;;;6241528;23;20099;-65
2024/01/16 21:34:30;;;;;;;11.23;6.43;;;3.70;98.20;;;;;;6242228;23;20012;-65
2024/01/16 21:37:16;;;;;;;11.77;5.45;;;3.70;98.20;;;;;;6242311;23;20148;-66
2024/01/16 21:40:02;;;;;;;11.48;6.22;;;3.70;98.30;;;;;;6241263;23;20066;-65
2024/01/16 21:42:49;;;;;;;9.65;6.03;;;3.70;98.30;;;;;;6220436;23;20449;-65
2024/01/16 21:45:35;;;;;;;13.55;5.95;;;3.60;98.30;;;;;;6241677;23;20024;-65
2024/01/16 21:48:21;;;;;;;11.80;5.90;;;3.60;98.30;;;;;;6240773;23;20016;-64
2024/01/16 21:51:07;;;;;;;8.82;5.90;;;3.60;98.30;;;;;;6240776;23;20004;-65
2024/01/16 21:53:53;;;;;;;11.35;6.10;;;3.50;98.20;;;;;;6240205;23;20008;-65
2024/01/16 21:56:39;;;;;;;11.15;6.05;;;3.50;98.50;;;;;;6242759;23;20012;-67
2024/01/16 21:59:25;;;;;;;11.43;5.47;;;3.50;98.30;;;;;;6242098;23;20004;-65
2024/01/16 22:02:13;;;;;;;22.20;6.07;;;3.40;98.30;;;;;;6240909;23;20008;-65
2024/01/16 22:04:59;;;;;;;10.70;4.88;;;3.40;98.30;;;;;;6239940;23;20032;-65
2024/01/16 22:07:45;;;;;;;12.63;5.97;;;3.40;98.30;;;;;;6239253;23;20392;-65
2024/01/16 22:10:31;;;;;;;9.20;5.50;;;3.40;98.30;;;;;;6239123;23;20020;-65
2024/01/16 22:13:18;;;;;;;7.97;4.88;;;3.40;98.30;;;;;;6241230;23;20345;-65
2024/01/16 22:16:05;;;;;;;13.40;5.50;;;3.40;98.30;;;;;;6242366;23;20084;-65
2024/01/16 22:18:51;;;;;;;11.43;5.35;;;3.40;98.30;;;;;;6240171;23;20023;-65
2024/01/16 22:21:37;;;;;;;9.68;5.70;;;3.40;98.40;;;;;;6240673;23;20012;-65
2024/01/16 22:24:23;;;;;;;8.50;5.53;;;3.40;98.40;;;;;;6239145;23;20480;-65
2024/01/16 22:27:09;;;;;;;10.65;6.72;;;3.40;98.30;;;;;;6240530;23;20058;-65
2024/01/16 22:29:55;;;;;;;9.00;5.25;;;3.50;98.30;;;;;;6239945;23;20020;-64
2024/01/16 22:32:41;;;;;;;6.85;4.63;;;3.40;98.30;;;;;;6242210;23;20345;-64
2024/01/16 22:35:27;;;;;;;9.25;5.53;;;3.40;98.30;;;;;;6240847;23;20062;-64
2024/01/16 22:38:12;;;;;;;7.60;5.55;;;3.40;98.30;;;;;;6240698;23;20052;-64
2024/01/16 22:40:58;;;;;;;9.00;5.13;;;3.30;98.30;;;;;;6241480;23;20040;-64
2024/01/16 22:43:45;;;;;;;12.38;5.47;;;3.30;98.30;;;;;;6242627;23;20012;-64
2024/01/16 22:46:31;;;;;;;11.43;6.30;;;3.20;98.20;;;;;;6241117;23;20028;-65
2024/01/16 22:49:17;;;;;;;11.60;5.75;;;3.20;98.20;;;;;;6242284;23;20020;-65
2024/01/16 22:52:03;;;;;;;8.70;5.55;;;3.20;98.20;;;;;;6239925;23;20011;-64